createdAt,value
2022-12-08T00:00:57.097Z,1.66
2022-12-08T00:03:07.731Z,1.67
2022-12-08T00:05:28.185Z,1.60
2022-12-08T00:07:48.491Z,1.60
2022-12-08T00:09:56.712Z,1.72
2022-12-08T00:12:06.845Z,1.81
2022-12-08T00:14:15.379Z,1.75
2022-12-08T00:16:23.217Z,1.77
2022-12-08T00:18:37.055Z,1.82
2022-12-08T00:20:45.220Z,1.89
2022-12-08T00:22:52.936Z,1.86
2022-12-08T00:25:00.947Z,1.82
2022-12-08T00:27:09.215Z,1.72
2022-12-08T00:29:17.802Z,1.64
2022-12-08T00:31:25.703Z,1.60
2022-12-08T00:33:36.317Z,1.62
2022-12-08T00:35:45.111Z,1.36
2022-12-08T00:37:57.514Z,1.16
2022-12-08T00:40:10.305Z,0.94
2022-12-08T00:42:18.207Z,0.93
2022-12-08T00:44:26.609Z,0.89
2022-12-08T00:46:34.364Z,0.95
2022-12-08T00:48:44.887Z,0.69
2022-12-08T00:50:53.000Z,0.47
2022-12-08T00:53:00.837Z,0.31
2022-12-08T00:55:09.326Z,0.17
2022-12-08T00:57:17.264Z,0.07
2022-12-08T00:59:25.284Z,-0.01
2022-12-08T01:01:34.461Z,-0.14
2022-12-08T01:03:46.204Z,-0.27
2022-12-08T01:05:54.206Z,-0.28
2022-12-08T01:08:02.016Z,-0.29
2022-12-08T01:10:11.436Z,-0.42
2022-12-08T01:12:19.582Z,-0.45
2022-12-08T01:14:29.182Z,-0.45
2022-12-08T01:16:41.619Z,-0.29
2022-12-08T01:18:53.475Z,-0.40
2022-12-08T01:21:05.897Z,-0.29
2022-12-08T01:23:14.108Z,-0.22
2022-12-08T01:25:23.025Z,-0.42
2022-12-08T01:27:30.922Z,-0.58
2022-12-08T01:29:38.752Z,-0.66
2022-12-08T01:31:47.018Z,-0.75
2022-12-08T01:33:58.768Z,-0.72
2022-12-08T01:36:07.429Z,-0.60
2022-12-08T01:38:15.206Z,-0.59
2022-12-08T01:40:23.044Z,-0.65
2022-12-08T01:42:32.496Z,-0.66
2022-12-08T01:45:02.819Z,-0.76
2022-12-08T01:47:11.594Z,-0.78
2022-12-08T01:49:25.248Z,-0.70
2022-12-08T01:51:39.103Z,-0.77
2022-12-08T01:53:47.689Z,-0.82
2022-12-08T01:56:00.109Z,-0.88
2022-12-08T01:58:14.356Z,-1.07
2022-12-08T02:00:26.538Z,-1.16
2022-12-08T02:02:41.678Z,-1.18
2022-12-08T02:04:52.135Z,-1.25
2022-12-08T02:07:06.389Z,-1.29
2022-12-08T02:09:15.940Z,-1.28
2022-12-08T02:11:24.154Z,-1.15
2022-12-08T02:13:32.842Z,-1.11
2022-12-08T02:15:52.902Z,-1.17
2022-12-08T02:18:16.962Z,-1.16
2022-12-08T02:20:52.948Z,-1.32
2022-12-08T02:23:07.363Z,-1.53
2022-12-08T02:25:23.463Z,-1.56
2022-12-08T02:27:55.434Z,-1.49
2022-12-08T02:30:21.463Z,-1.58
2022-12-08T02:32:57.813Z,-1.65
2022-12-08T02:35:14.913Z,-1.62
2022-12-08T02:37:32.444Z,-1.69
2022-12-08T02:39:48.398Z,-1.70
2022-12-08T02:42:02.847Z,-1.72
2022-12-08T02:44:18.152Z,-1.80
2022-12-08T02:46:31.160Z,-1.78
2022-12-08T02:48:39.502Z,-1.80
2022-12-08T02:50:49.992Z,-1.64
2022-12-08T02:52:58.498Z,-1.76
2022-12-08T02:55:11.420Z,-1.79
2022-12-08T02:57:33.994Z,-1.89
2022-12-08T02:59:55.755Z,-1.80
2022-12-08T03:02:25.357Z,-1.82
2022-12-08T03:04:45.151Z,-1.84
2022-12-08T03:07:06.116Z,-1.88
2022-12-08T03:09:21.025Z,-1.88
2022-12-08T03:11:38.334Z,-1.92
2022-12-08T03:13:50.307Z,-1.94
2022-12-08T03:15:59.226Z,-2.03
2022-12-08T03:18:11.211Z,-2.10
2022-12-08T03:20:23.565Z,-1.98
2022-12-08T03:22:34.612Z,-2.02
2022-12-08T03:24:44.964Z,-2.14
2022-12-08T03:26:57.945Z,-2.15
2022-12-08T03:29:06.010Z,-2.20
2022-12-08T03:31:19.090Z,-2.23
2022-12-08T03:33:30.451Z,-2.22
2022-12-08T03:35:42.530Z,-2.18
2022-12-08T03:37:53.379Z,-2.16
2022-12-08T03:40:02.801Z,-2.11
2022-12-08T03:42:12.030Z,-2.06
2022-12-08T03:44:19.905Z,-1.89
2022-12-08T03:48:37.205Z,-1.72
2022-12-08T03:50:44.892Z,-1.68
2022-12-08T03:52:55.458Z,-1.74
2022-12-08T03:55:03.780Z,-1.74
2022-12-08T03:57:11.767Z,-1.76
2022-12-08T03:59:19.701Z,-1.79
2022-12-08T04:01:28.425Z,-1.87
2022-12-08T04:03:36.313Z,-1.90
2022-12-08T04:05:44.455Z,-1.86
2022-12-08T04:07:52.778Z,-1.92
2022-12-08T04:10:03.684Z,-1.98
2022-12-08T04:12:13.449Z,-2.04
2022-12-08T04:14:22.218Z,-2.16
2022-12-08T04:16:30.446Z,-2.09
2022-12-08T04:18:39.174Z,-2.05
2022-12-08T04:20:48.237Z,-2.07
2022-12-08T04:22:55.997Z,-2.02
2022-12-08T04:25:07.148Z,-1.87
2022-12-08T04:27:14.907Z,-1.96
2022-12-08T04:29:23.209Z,-1.99
2022-12-08T04:31:31.225Z,-1.99
2022-12-08T04:33:39.655Z,-2.06
2022-12-08T04:35:47.560Z,-2.21
2022-12-08T04:37:55.340Z,-2.29
2022-12-08T04:40:03.540Z,-2.28
2022-12-08T04:42:14.223Z,-2.18
2022-12-08T04:44:22.455Z,-2.24
2022-12-08T04:46:30.303Z,-2.32
2022-12-08T04:48:40.558Z,-2.29
2022-12-08T04:50:49.422Z,-2.16
2022-12-08T04:52:58.512Z,-2.18
2022-12-08T04:55:08.267Z,-2.07
2022-12-08T04:57:19.766Z,-2.04
2022-12-08T04:59:28.665Z,-2.02
2022-12-08T05:01:36.615Z,-2.40
2022-12-08T05:03:44.598Z,-2.53
2022-12-08T05:05:52.388Z,-2.45
2022-12-08T05:08:00.560Z,-2.41
2022-12-08T05:10:11.297Z,-2.32
2022-12-08T05:12:21.823Z,-2.14
2022-12-08T05:14:29.965Z,-2.17
2022-12-08T05:16:37.742Z,-2.25
2022-12-08T05:18:46.510Z,-2.29
2022-12-08T05:20:54.336Z,-2.37
2022-12-08T05:23:02.195Z,-2.42
2022-12-08T05:25:11.118Z,-2.39
2022-12-08T05:27:21.594Z,-2.38
2022-12-08T05:29:30.060Z,-2.32
2022-12-08T05:31:38.342Z,-2.08
2022-12-08T05:33:46.472Z,-2.16
2022-12-08T05:35:54.402Z,-2.24
2022-12-08T05:38:03.494Z,-2.31
2022-12-08T05:40:12.239Z,-2.39
2022-12-08T05:42:24.939Z,-2.38
2022-12-08T05:44:33.706Z,-2.47
2022-12-08T05:46:42.488Z,-2.45
2022-12-08T05:48:50.380Z,-2.40
2022-12-08T05:50:59.004Z,-2.48
2022-12-08T05:53:07.027Z,-2.54
2022-12-08T05:55:15.229Z,-2.58
2022-12-08T05:57:25.847Z,-2.59
2022-12-08T05:59:33.567Z,-2.40
2022-12-08T06:01:42.690Z,-2.24
2022-12-08T06:03:50.925Z,-2.22
2022-12-08T06:05:59.333Z,-2.28
2022-12-08T06:08:07.406Z,-2.37
2022-12-08T06:10:15.774Z,-2.49
2022-12-08T06:12:26.160Z,-2.42
2022-12-08T06:14:34.328Z,-2.26
2022-12-08T06:16:43.445Z,-2.29
2022-12-08T06:18:51.837Z,-2.33
2022-12-08T06:21:05.432Z,-2.40
2022-12-08T06:23:13.148Z,-2.51
2022-12-08T06:25:21.168Z,-2.39
2022-12-08T06:27:31.917Z,-2.31
2022-12-08T06:29:39.876Z,-2.28
2022-12-08T06:31:47.899Z,-2.32
2022-12-08T06:33:58.038Z,-2.44
2022-12-08T06:36:05.967Z,-2.44
2022-12-08T06:38:14.293Z,-2.36
2022-12-08T06:40:22.965Z,-2.46
2022-12-08T06:42:48.188Z,-2.57
2022-12-08T06:44:56.610Z,-2.60
2022-12-08T06:47:04.446Z,-2.64
2022-12-08T06:49:13.319Z,-2.62
2022-12-08T06:51:23.664Z,-2.62
2022-12-08T06:53:31.400Z,-2.68
2022-12-08T06:55:58.723Z,-2.72
2022-12-08T06:58:09.559Z,-2.69
2022-12-08T07:00:18.956Z,-2.65
2022-12-08T07:02:27.048Z,-2.73
2022-12-08T07:04:34.839Z,-2.75
2022-12-08T07:06:43.203Z,-2.65
2022-12-08T07:08:50.955Z,-2.60
2022-12-08T07:10:58.800Z,-2.67
2022-12-08T07:13:09.656Z,-2.72
2022-12-08T07:15:17.826Z,-2.45
2022-12-08T07:17:25.612Z,-2.49
2022-12-08T07:19:34.516Z,-2.58
2022-12-08T07:21:42.417Z,-2.71
2022-12-08T07:23:57.307Z,-2.73
2022-12-08T07:26:07.874Z,-2.70
2022-12-08T07:28:18.360Z,-2.67
2022-12-08T07:30:26.168Z,-2.61
2022-12-08T07:32:34.889Z,-2.54
2022-12-08T07:34:43.714Z,-2.47
2022-12-08T07:36:51.773Z,-2.54
2022-12-08T07:39:00.013Z,-2.54
2022-12-08T07:41:08.277Z,-2.46
2022-12-08T07:43:19.176Z,-2.59
2022-12-08T07:45:31.485Z,-2.63
2022-12-08T07:47:40.407Z,-2.50
2022-12-08T07:49:48.514Z,-2.55
2022-12-08T07:51:56.307Z,-2.51
2022-12-08T07:54:04.115Z,-2.40
2022-12-08T07:56:13.201Z,-2.54
2022-12-08T07:58:23.780Z,-2.57
2022-12-08T08:00:31.579Z,-2.57
2022-12-08T08:02:39.545Z,-2.63
2022-12-08T08:04:48.634Z,-2.56
2022-12-08T08:06:58.711Z,-2.52
2022-12-08T08:09:08.966Z,-2.49
2022-12-08T08:11:21.430Z,-2.55
2022-12-08T08:13:33.491Z,-2.51
2022-12-08T08:15:41.632Z,-2.38
2022-12-08T08:17:54.052Z,-2.44
2022-12-08T08:20:02.925Z,-2.44
2022-12-08T08:22:12.394Z,-2.43
2022-12-08T08:24:21.708Z,-2.36
2022-12-08T08:26:29.619Z,-2.37
2022-12-08T08:28:40.061Z,-2.38
2022-12-08T08:30:49.354Z,-2.43
2022-12-08T08:32:57.068Z,-2.41
2022-12-08T08:35:06.587Z,-2.32
2022-12-08T08:37:14.575Z,-2.37
2022-12-08T08:39:22.437Z,-2.28
2022-12-08T08:41:30.418Z,-2.28
2022-12-08T08:43:41.264Z,-2.14
2022-12-08T08:45:49.593Z,-2.11
2022-12-08T08:47:57.921Z,-2.03
2022-12-08T08:50:06.664Z,-2.15
2022-12-08T08:52:16.204Z,-2.07
2022-12-08T08:54:25.230Z,-2.15
2022-12-08T08:56:33.241Z,-1.99
2022-12-08T08:58:45.336Z,-1.94
2022-12-08T09:00:54.999Z,-1.96
2022-12-08T09:03:04.473Z,-1.89
2022-12-08T09:05:13.663Z,-1.80
2022-12-08T09:07:22.728Z,-1.62
2022-12-08T09:09:31.332Z,-0.91
2022-12-08T09:11:39.685Z,0.46
2022-12-08T09:13:51.525Z,2.46
2022-12-08T09:16:00.837Z,3.56
2022-12-08T09:18:09.733Z,4.90
2022-12-08T09:20:17.628Z,5.08
2022-12-08T09:22:25.587Z,5.12
2022-12-08T09:24:33.515Z,5.66
2022-12-08T09:26:41.827Z,5.80
2022-12-08T09:28:52.721Z,5.07
2022-12-08T09:31:00.798Z,4.64
2022-12-08T09:33:10.433Z,5.83
2022-12-08T09:35:18.496Z,6.05
2022-12-08T09:37:26.354Z,5.60
2022-12-08T09:39:34.962Z,4.57
2022-12-08T09:41:50.148Z,4.78
2022-12-08T09:44:12.144Z,4.40
2022-12-08T09:46:22.235Z,3.64
2022-12-08T09:48:37.437Z,4.27
2022-12-08T09:50:52.759Z,3.02
2022-12-08T09:53:08.795Z,2.01
2022-12-08T09:55:25.572Z,2.08
2022-12-08T09:57:33.773Z,1.98
2022-12-08T09:59:50.686Z,1.32
2022-12-08T10:01:59.691Z,0.94
2022-12-08T10:04:17.140Z,0.64
2022-12-08T10:06:34.029Z,0.48
2022-12-08T10:08:51.116Z,0.35
2022-12-08T10:11:07.306Z,0.25
2022-12-08T10:13:23.933Z,0.29
2022-12-08T10:15:53.842Z,0.43
2022-12-08T10:18:06.168Z,0.23
2022-12-08T10:20:18.866Z,0.24
2022-12-08T10:22:28.592Z,0.27
2022-12-08T10:24:40.820Z,0.52
2022-12-08T10:26:50.007Z,0.59
2022-12-08T10:29:03.229Z,0.47
2022-12-08T10:31:19.233Z,0.40
2022-12-08T10:33:30.283Z,0.50
2022-12-08T10:35:52.712Z,0.55
2022-12-08T10:38:02.664Z,0.65
2022-12-08T10:40:15.947Z,0.72
2022-12-08T10:42:26.250Z,0.70
2022-12-08T10:44:37.974Z,0.68
2022-12-08T10:46:50.913Z,0.60
2022-12-08T10:49:16.438Z,0.66
2022-12-08T10:51:33.735Z,0.80
2022-12-08T10:53:49.825Z,0.78
2022-12-08T10:56:10.671Z,0.76
2022-12-08T10:58:30.324Z,0.76
2022-12-08T11:00:42.644Z,0.85
2022-12-08T11:03:01.005Z,0.89
2022-12-08T11:05:11.449Z,0.89
2022-12-08T11:07:25.784Z,1.03
2022-12-08T11:09:49.029Z,1.20
2022-12-08T11:11:59.945Z,1.20
2022-12-08T11:14:10.934Z,1.18
2022-12-08T11:16:21.083Z,1.11
2022-12-08T11:18:33.968Z,1.10
2022-12-08T11:20:43.757Z,1.24
2022-12-08T11:22:56.526Z,1.40
2022-12-08T11:25:13.511Z,1.40
2022-12-08T11:27:21.539Z,1.47
2022-12-08T11:29:30.788Z,1.54
2022-12-08T11:31:44.347Z,1.47
2022-12-08T11:33:56.315Z,1.50
2022-12-08T11:36:13.246Z,1.54
2022-12-08T11:38:24.400Z,1.81
2022-12-08T11:40:37.368Z,1.77
2022-12-08T11:42:57.999Z,1.66
2022-12-08T11:45:13.377Z,1.88
2022-12-08T11:47:27.711Z,1.76
2022-12-08T11:49:41.178Z,1.85
2022-12-08T11:51:55.966Z,1.77
2022-12-08T11:54:15.538Z,1.84
2022-12-08T11:56:28.289Z,1.87
2022-12-08T11:58:42.633Z,1.89
2022-12-08T12:00:51.263Z,1.87
2022-12-08T12:03:05.764Z,2.25
2022-12-08T12:06:05.381Z,2.50
2022-12-08T12:08:12.545Z,2.75
2022-12-08T12:10:41.018Z,2.70
2022-12-08T12:13:02.163Z,2.86
2022-12-08T12:15:37.295Z,2.99
2022-12-08T12:17:51.032Z,3.09
2022-12-08T12:20:03.013Z,3.31
2022-12-08T12:22:20.435Z,3.33
2022-12-08T12:24:36.293Z,3.38
2022-12-08T12:26:58.684Z,3.27
2022-12-08T12:29:09.814Z,3.27
2022-12-08T12:31:21.049Z,3.12
2022-12-08T12:33:29.833Z,3.04
2022-12-08T12:35:41.690Z,3.06
2022-12-08T12:37:52.506Z,3.07
2022-12-08T12:40:05.254Z,2.85
2022-12-08T12:42:41.693Z,2.75
2022-12-08T12:44:49.568Z,2.76
2022-12-08T12:47:03.135Z,2.70
2022-12-08T12:49:51.430Z,2.50
2022-12-08T12:51:59.399Z,2.48
2022-12-08T12:54:29.475Z,2.68
2022-12-08T12:56:57.016Z,2.48
2022-12-08T12:59:55.831Z,2.48
2022-12-08T13:02:04.440Z,2.13
2022-12-08T13:04:13.445Z,2.17
2022-12-08T13:06:36.262Z,2.11
2022-12-08T13:08:53.613Z,2.09
2022-12-08T13:11:09.193Z,2.18
2022-12-08T13:13:21.428Z,2.07
2022-12-08T13:15:36.020Z,2.13
2022-12-08T13:17:49.311Z,2.25
2022-12-08T13:20:01.006Z,2.19
2022-12-08T13:22:38.903Z,2.33
2022-12-08T13:24:47.208Z,2.35
2022-12-08T13:27:54.515Z,2.17
2022-12-08T13:30:32.882Z,2.20
2022-12-08T13:35:29.816Z,2.75
2022-12-08T13:37:55.030Z,2.81
2022-12-08T13:40:08.565Z,3.01
2022-12-08T13:42:25.065Z,3.13
2022-12-08T13:47:33.529Z,2.83
2022-12-08T13:57:30.269Z,3.29
2022-12-08T13:59:48.182Z,3.36
2022-12-08T14:01:56.228Z,3.25
2022-12-08T14:04:34.111Z,3.31
2022-12-08T14:06:40.342Z,3.25
2022-12-08T14:09:06.933Z,3.24
2022-12-08T14:11:36.446Z,3.32
2022-12-08T14:13:45.150Z,3.28
2022-12-08T14:15:55.922Z,3.19
2022-12-08T14:18:05.063Z,3.01
2022-12-08T14:20:25.421Z,2.71
2022-12-08T14:22:37.670Z,2.88
2022-12-08T14:24:49.025Z,2.98
2022-12-08T14:26:59.001Z,3.01
2022-12-08T14:29:11.366Z,3.04
2022-12-08T14:31:22.273Z,2.91
2022-12-08T14:33:31.101Z,3.02
2022-12-08T14:35:41.859Z,3.03
2022-12-08T14:37:53.259Z,2.95
2022-12-08T14:40:05.508Z,2.83
2022-12-08T14:42:24.658Z,2.82
2022-12-08T14:44:36.089Z,2.76
2022-12-08T14:47:06.746Z,2.73
2022-12-08T14:49:36.787Z,2.80
2022-12-08T14:51:44.793Z,2.70
2022-12-08T14:53:59.109Z,2.74
2022-12-08T14:56:11.136Z,2.77
2022-12-08T14:58:24.996Z,2.72
2022-12-08T15:00:34.353Z,2.60
2022-12-08T15:02:48.905Z,2.67
2022-12-08T15:05:03.134Z,2.55
2022-12-08T15:07:16.769Z,2.41
2022-12-08T15:09:35.121Z,2.41
2022-12-08T15:11:45.129Z,2.38
2022-12-08T15:13:55.986Z,2.31
2022-12-08T15:16:06.462Z,2.33
2022-12-08T15:18:20.090Z,2.35
2022-12-08T15:20:39.864Z,2.32
2022-12-08T15:22:47.751Z,2.11
2022-12-08T15:24:55.597Z,2.12
2022-12-08T15:27:03.694Z,2.12
2022-12-08T15:29:21.014Z,2.05
2022-12-08T15:31:28.892Z,1.99
2022-12-08T15:33:39.584Z,1.93
2022-12-08T15:35:47.942Z,1.97
2022-12-08T15:37:56.938Z,2.14
2022-12-08T15:40:06.472Z,2.05
2022-12-08T15:42:16.063Z,2.24
2022-12-08T15:44:23.935Z,2.12
2022-12-08T15:46:34.541Z,2.05
2022-12-08T15:48:45.507Z,2.00
2022-12-08T15:50:53.713Z,1.92
2022-12-08T15:53:01.552Z,1.75
2022-12-08T15:55:09.924Z,1.81
2022-12-08T15:58:04.628Z,1.79
2022-12-08T15:59:53.078Z,1.88
2022-12-08T16:02:02.380Z,1.83
2022-12-08T16:09:25.097Z,1.88
2022-12-08T16:15:15.956Z,1.58
2022-12-08T16:16:43.583Z,1.57
2022-12-08T16:18:52.778Z,1.66
2022-12-08T16:23:43.165Z,1.79
2022-12-08T16:26:20.171Z,1.68
2022-12-08T16:28:52.817Z,1.74
2022-12-08T16:30:49.029Z,1.67
2022-12-08T16:32:57.170Z,1.54
2022-12-08T16:35:05.485Z,1.63
2022-12-08T16:37:19.473Z,1.66
2022-12-08T16:39:28.506Z,1.61
2022-12-08T16:41:48.800Z,1.54
2022-12-08T16:43:56.559Z,1.54
2022-12-08T16:46:04.924Z,1.61
2022-12-08T16:48:16.946Z,1.60
2022-12-08T16:50:26.810Z,1.54
2022-12-08T16:52:37.666Z,1.41
2022-12-08T16:54:45.450Z,1.51
2022-12-08T16:56:53.914Z,1.54
2022-12-08T16:59:02.099Z,1.59
2022-12-08T17:01:16.035Z,1.56
2022-12-08T17:03:26.172Z,1.45
2022-12-08T17:05:35.645Z,1.45
2022-12-08T17:07:47.310Z,1.55
2022-12-08T17:09:56.418Z,1.62
2022-12-08T17:12:04.616Z,1.62
2022-12-08T17:14:12.876Z,1.49
2022-12-08T17:16:22.432Z,1.45
2022-12-08T17:18:31.061Z,1.41
2022-12-08T17:20:39.306Z,1.48
2022-12-08T17:22:52.000Z,1.46
2022-12-08T17:24:59.732Z,1.56
2022-12-08T17:27:07.800Z,1.54
2022-12-08T17:29:15.512Z,1.46
2022-12-08T17:31:27.769Z,1.44
2022-12-08T17:33:37.871Z,1.50
2022-12-08T17:35:50.668Z,1.46
2022-12-08T17:38:01.404Z,1.44
2022-12-08T17:40:10.896Z,1.44
2022-12-08T17:42:19.076Z,1.41
2022-12-08T17:44:28.228Z,1.40
2022-12-08T17:46:41.617Z,1.19
2022-12-08T17:48:50.761Z,1.13
2022-12-08T17:51:02.088Z,1.26
2022-12-08T17:53:14.030Z,1.29
2022-12-08T17:55:22.376Z,1.47
2022-12-08T17:57:31.464Z,1.45
2022-12-08T17:59:40.547Z,1.48
2022-12-08T18:01:49.115Z,1.38
2022-12-08T18:03:57.244Z,1.25
2022-12-08T18:06:08.381Z,1.22
2022-12-08T18:08:18.931Z,1.22
2022-12-08T18:10:27.194Z,1.30
2022-12-08T18:12:35.401Z,1.25
2022-12-08T18:14:43.175Z,1.19
2022-12-08T18:16:52.598Z,1.16
2022-12-08T18:19:00.666Z,1.39
2022-12-08T18:21:10.184Z,1.42
2022-12-08T18:23:20.825Z,1.38
2022-12-08T18:25:28.610Z,1.50
2022-12-08T18:27:43.054Z,1.54
2022-12-08T18:29:52.661Z,1.41
2022-12-08T18:32:00.509Z,1.35
2022-12-08T18:34:08.693Z,1.41
2022-12-08T18:36:18.839Z,1.43
2022-12-08T18:38:30.376Z,1.39
2022-12-08T18:40:39.696Z,1.30
2022-12-08T18:42:47.703Z,1.05
2022-12-08T18:45:03.048Z,1.05
2022-12-08T18:47:14.558Z,1.04
2022-12-08T18:49:24.273Z,1.02
2022-12-08T18:51:34.020Z,0.81
2022-12-08T18:53:46.929Z,0.72
2022-12-08T18:55:54.912Z,0.66
2022-12-08T18:58:02.966Z,0.78
2022-12-08T19:00:16.652Z,0.72
2022-12-08T19:02:25.463Z,0.60
2022-12-08T19:04:38.544Z,0.58
2022-12-08T19:06:47.102Z,0.52
2022-12-08T19:08:57.713Z,0.52
2022-12-08T19:11:05.777Z,0.67
2022-12-08T19:13:13.573Z,0.65
2022-12-08T19:15:21.713Z,0.65
2022-12-08T19:17:29.950Z,0.54
2022-12-08T19:19:38.664Z,0.49
2022-12-08T19:21:49.986Z,0.49
2022-12-08T19:24:01.652Z,0.31
2022-12-08T19:26:12.117Z,0.30
2022-12-08T19:28:20.416Z,0.20
2022-12-08T19:30:29.606Z,0.17
2022-12-08T19:32:37.343Z,0.08
2022-12-08T19:34:46.674Z,0.04
2022-12-08T19:36:54.542Z,-0.02
2022-12-08T19:39:17.728Z,-0.07
2022-12-08T19:41:39.752Z,-0.17
2022-12-08T19:44:00.078Z,-0.19
2022-12-08T19:46:08.953Z,-0.31
2022-12-08T19:48:16.892Z,-0.39
2022-12-08T19:50:38.743Z,-0.49
2022-12-08T19:52:47.402Z,-0.57
2022-12-08T19:54:58.138Z,-0.62
2022-12-08T19:57:05.995Z,-0.75
2022-12-08T19:59:15.786Z,-0.67
2022-12-08T20:01:25.151Z,-0.59
2022-12-08T20:03:33.437Z,-0.58
2022-12-08T20:05:43.673Z,-0.58
2022-12-08T20:07:52.414Z,-0.62
2022-12-08T20:10:04.577Z,-0.68
2022-12-08T20:12:15.152Z,-0.74
2022-12-08T20:14:24.224Z,-0.76
2022-12-08T20:16:32.432Z,-0.91
2022-12-08T20:18:40.811Z,-1.09
2022-12-08T20:20:51.637Z,-1.23
2022-12-08T20:22:59.389Z,-1.28
2022-12-08T20:25:15.495Z,-1.39
2022-12-08T20:27:27.517Z,-1.46
2022-12-08T20:29:41.374Z,-1.54
2022-12-08T20:31:50.196Z,-1.55
2022-12-08T20:34:02.146Z,-1.37
2022-12-08T20:36:11.006Z,-1.33
2022-12-08T20:38:21.204Z,-1.39
2022-12-08T20:40:33.567Z,-1.42
2022-12-08T20:42:42.038Z,-1.38
2022-12-08T20:44:52.881Z,-1.25
2022-12-08T20:47:03.281Z,-1.12
2022-12-08T20:49:11.416Z,-1.16
2022-12-08T20:51:32.022Z,-1.22
2022-12-08T20:53:42.769Z,-1.34
2022-12-08T20:55:59.895Z,-1.42
2022-12-08T20:58:09.018Z,-1.43
2022-12-08T21:00:21.802Z,-1.37
2022-12-08T21:02:30.279Z,-1.37
2022-12-08T21:04:38.908Z,-1.40
2022-12-08T21:06:47.507Z,-1.34
2022-12-08T21:08:55.933Z,-1.39
2022-12-08T21:11:08.821Z,-1.44
2022-12-08T21:13:17.082Z,-1.48
2022-12-08T21:15:26.299Z,-1.51
2022-12-08T21:17:37.323Z,-1.56
2022-12-08T21:19:49.364Z,-1.60
2022-12-08T21:22:00.363Z,-1.65
2022-12-08T21:24:11.256Z,-1.69
2022-12-08T21:26:26.407Z,-1.77
2022-12-08T21:28:35.587Z,-1.80
2022-12-08T21:30:44.425Z,-1.81
2022-12-08T21:32:52.672Z,-1.90
2022-12-08T21:35:00.963Z,-1.94
2022-12-08T21:37:09.436Z,-1.94
2022-12-08T21:39:17.600Z,-1.91
2022-12-08T21:41:40.867Z,-1.93
2022-12-08T21:43:49.084Z,-1.84
2022-12-08T21:45:58.295Z,-1.74
2022-12-08T21:48:11.388Z,-1.90
2022-12-08T21:50:21.221Z,-2.07
2022-12-08T21:52:30.373Z,-2.14
2022-12-08T21:54:39.598Z,-2.19
2022-12-08T21:56:51.371Z,-2.27
2022-12-08T21:59:00.327Z,-2.36
2022-12-08T22:01:09.480Z,-2.41
2022-12-08T22:03:18.572Z,-2.45
2022-12-08T22:05:27.649Z,-2.46
2022-12-08T22:07:37.114Z,-2.49
2022-12-08T22:09:46.358Z,-2.48
2022-12-08T22:11:57.252Z,-2.19
2022-12-08T22:14:08.377Z,-2.15
2022-12-08T22:16:20.894Z,-2.23
2022-12-08T22:18:28.991Z,-2.28
2022-12-08T22:20:42.295Z,-2.29
2022-12-08T22:22:51.948Z,-2.38
2022-12-08T22:24:59.927Z,-2.50
2022-12-08T22:27:10.500Z,-2.58
2022-12-08T22:29:18.709Z,-2.64
2022-12-08T22:31:27.006Z,-2.70
2022-12-08T22:33:35.304Z,-2.72
2022-12-08T22:35:43.929Z,-2.75
2022-12-08T22:37:52.581Z,-2.77
2022-12-08T22:40:01.387Z,-2.75
2022-12-08T22:42:12.199Z,-2.68
2022-12-08T22:44:20.152Z,-2.66
2022-12-08T22:46:29.898Z,-2.67
2022-12-08T22:48:37.844Z,-2.68
2022-12-08T22:50:46.310Z,-2.57
2022-12-08T22:52:54.472Z,-2.52
2022-12-08T22:55:02.216Z,-2.52
2022-12-08T22:57:12.785Z,-2.51
2022-12-08T22:59:21.932Z,-2.50
2022-12-08T23:01:32.758Z,-2.55
2022-12-08T23:03:46.191Z,-2.58
2022-12-08T23:05:55.584Z,-2.58
2022-12-08T23:08:18.036Z,-2.42
2022-12-08T23:10:26.232Z,-2.36
2022-12-08T23:12:36.975Z,-2.44
2022-12-08T23:14:45.100Z,-2.48
2022-12-08T23:16:53.378Z,-2.45
2022-12-08T23:19:01.883Z,-2.33
2022-12-08T23:21:11.636Z,-2.29
2022-12-08T23:23:20.841Z,-2.25
2022-12-08T23:25:29.996Z,-2.30
2022-12-08T23:27:40.837Z,-2.14
2022-12-08T23:29:49.859Z,-2.01
2022-12-08T23:31:57.844Z,-1.97
2022-12-08T23:34:06.547Z,-1.94
2022-12-08T23:36:15.587Z,-1.99
2022-12-08T23:38:23.492Z,-2.10
2022-12-08T23:40:31.929Z,-2.20
2022-12-08T23:42:42.532Z,-2.33
2022-12-08T23:44:50.786Z,-2.25
2022-12-08T23:46:58.764Z,-2.22
2022-12-08T23:49:06.701Z,-2.28
2022-12-08T23:51:16.058Z,-2.31
2022-12-08T23:53:24.379Z,-2.31
2022-12-08T23:55:32.251Z,-2.52
2022-12-08T23:57:42.708Z,-2.55
2022-12-08T23:59:51.188Z,-2.48
